sensor_id;sensor_type;location;lat;lon;timestamp;temperature;humidity
71082;SHT31;58740;50.672;18.690;2023-02-28T00:01:40;0.43;63.60
71082;SHT31;58740;50.672;18.690;2023-02-28T00:04:08;0.44;62.76
71082;SHT31;58740;50.672;18.690;2023-02-28T00:06:36;0.47;63.18
71082;SHT31;58740;50.672;18.690;2023-02-28T00:09:04;0.50;63.04
71082;SHT31;58740;50.672;18.690;2023-02-28T00:11:32;0.51;62.72
71082;SHT31;58740;50.672;18.690;2023-02-28T00:14:00;0.54;63.20
71082;SHT31;58740;50.672;18.690;2023-02-28T00:16:28;0.55;62.63
71082;SHT31;58740;50.672;18.690;2023-02-28T00:18:55;0.53;62.22
71082;SHT31;58740;50.672;18.690;2023-02-28T00:21:23;0.50;62.53
71082;SHT31;58740;50.672;18.690;2023-02-28T00:23:51;0.50;62.86
71082;SHT31;58740;50.672;18.690;2023-02-28T00:26:19;0.50;63.03
71082;SHT31;58740;50.672;18.690;2023-02-28T00:28:48;0.49;62.55
71082;SHT31;58740;50.672;18.690;2023-02-28T00:31:16;0.46;62.58
71082;SHT31;58740;50.672;18.690;2023-02-28T00:33:43;0.45;62.74
71082;SHT31;58740;50.672;18.690;2023-02-28T00:36:11;0.45;62.89
71082;SHT31;58740;50.672;18.690;2023-02-28T00:38:39;0.42;62.69
71082;SHT31;58740;50.672;18.690;2023-02-28T00:41:08;0.39;63.15
71082;SHT31;58740;50.672;18.690;2023-02-28T00:43:37;0.38;63.77
71082;SHT31;58740;50.672;18.690;2023-02-28T00:46:06;0.36;63.19
71082;SHT31;58740;50.672;18.690;2023-02-28T00:48:35;0.31;63.32
71082;SHT31;58740;50.672;18.690;2023-02-28T00:51:03;0.29;63.18
71082;SHT31;58740;50.672;18.690;2023-02-28T00:53:32;0.27;63.48
71082;SHT31;58740;50.672;18.690;2023-02-28T00:56:00;0.25;63.36
71082;SHT31;58740;50.672;18.690;2023-02-28T00:58:28;0.22;63.66
71082;SHT31;58740;50.672;18.690;2023-02-28T01:00:56;0.22;63.75
71082;SHT31;58740;50.672;18.690;2023-02-28T01:03:24;0.16;63.26
71082;SHT31;58740;50.672;18.690;2023-02-28T01:05:52;0.12;63.32
71082;SHT31;58740;50.672;18.690;2023-02-28T01:08:20;0.10;62.95
71082;SHT31;58740;50.672;18.690;2023-02-28T01:10:49;0.08;63.46
71082;SHT31;58740;50.672;18.690;2023-02-28T01:13:17;0.05;63.22
71082;SHT31;58740;50.672;18.690;2023-02-28T01:15:51;0.01;63.58
71082;SHT31;58740;50.672;18.690;2023-02-28T01:18:23;-0.01;63.75
71082;SHT31;58740;50.672;18.690;2023-02-28T01:20:52;-0.05;63.73
71082;SHT31;58740;50.672;18.690;2023-02-28T01:23:21;-0.08;63.67
71082;SHT31;58740;50.672;18.690;2023-02-28T01:25:50;-0.12;63.86
71082;SHT31;58740;50.672;18.690;2023-02-28T01:28:19;-0.16;63.97
71082;SHT31;58740;50.672;18.690;2023-02-28T01:30:48;-0.19;64.01
71082;SHT31;58740;50.672;18.690;2023-02-28T01:33:17;-0.22;64.31
71082;SHT31;58740;50.672;18.690;2023-02-28T01:35:45;-0.25;64.36
71082;SHT31;58740;50.672;18.690;2023-02-28T01:38:13;-0.29;64.42
71082;SHT31;58740;50.672;18.690;2023-02-28T01:40:50;-0.31;64.55
71082;SHT31;58740;50.672;18.690;2023-02-28T01:43:29;-0.30;64.59
71082;SHT31;58740;50.672;18.690;2023-02-28T01:46:00;-0.28;64.79
71082;SHT31;58740;50.672;18.690;2023-02-28T01:48:29;-0.27;64.89
71082;SHT31;58740;50.672;18.690;2023-02-28T01:51:08;-0.26;64.75
71082;SHT31;58740;50.672;18.690;2023-02-28T01:53:44;-0.28;64.74
71082;SHT31;58740;50.672;18.690;2023-02-28T01:56:20;-0.30;64.82
71082;SHT31;58740;50.672;18.690;2023-02-28T01:58:54;-0.29;65.09
71082;SHT31;58740;50.672;18.690;2023-02-28T02:01:23;-0.29;65.15
71082;SHT31;58740;50.672;18.690;2023-02-28T02:03:55;-0.30;64.96
71082;SHT31;58740;50.672;18.690;2023-02-28T02:06:30;-0.34;64.92
71082;SHT31;58740;50.672;18.690;2023-02-28T02:09:04;-0.38;64.86
71082;SHT31;58740;50.672;18.690;2023-02-28T02:11:33;-0.43;64.98
71082;SHT31;58740;50.672;18.690;2023-02-28T02:17:04;-0.47;64.94
71082;SHT31;58740;50.672;18.690;2023-02-28T02:38:49;-0.74;65.60
71082;SHT31;58740;50.672;18.690;2023-02-28T02:41:45;-0.77;65.75
71082;SHT31;58740;50.672;18.690;2023-02-28T02:44:33;-0.81;65.86
71082;SHT31;58740;50.672;18.690;2023-02-28T02:47:13;-0.85;65.85
71082;SHT31;58740;50.672;18.690;2023-02-28T02:49:47;-0.89;65.86
71082;SHT31;58740;50.672;18.690;2023-02-28T02:52:22;-0.92;65.95
71082;SHT31;58740;50.672;18.690;2023-02-28T02:55:01;-0.95;66.03
71082;SHT31;58740;50.672;18.690;2023-02-28T02:57:45;-0.98;66.12
71082;SHT31;58740;50.672;18.690;2023-02-28T03:00:20;-0.95;66.14
71082;SHT31;58740;50.672;18.690;2023-02-28T03:03:00;-0.95;66.00
71082;SHT31;58740;50.672;18.690;2023-02-28T03:05:31;-0.97;66.07
71082;SHT31;58740;50.672;18.690;2023-02-28T03:08:11;-1.00;66.08
71082;SHT31;58740;50.672;18.690;2023-02-28T03:10:40;-1.03;65.96
71082;SHT31;58740;50.672;18.690;2023-02-28T03:24:48;-1.15;66.17
71082;SHT31;58740;50.672;18.690;2023-02-28T03:27:46;-1.19;66.38
71082;SHT31;58740;50.672;18.690;2023-02-28T03:30:37;-1.20;66.11
71082;SHT31;58740;50.672;18.690;2023-02-28T03:33:28;-1.23;66.28
71082;SHT31;58740;50.672;18.690;2023-02-28T03:36:08;-1.28;66.52
71082;SHT31;58740;50.672;18.690;2023-02-28T03:38:46;-1.33;66.44
71082;SHT31;58740;50.672;18.690;2023-02-28T03:41:55;-1.36;66.48
71082;SHT31;58740;50.672;18.690;2023-02-28T03:44:32;-1.40;66.50
71082;SHT31;58740;50.672;18.690;2023-02-28T03:47:12;-1.44;66.52
71082;SHT31;58740;50.672;18.690;2023-02-28T03:50:10;-1.50;66.68
71082;SHT31;58740;50.672;18.690;2023-02-28T03:55:50;-1.61;67.04
71082;SHT31;58740;50.672;18.690;2023-02-28T04:01:01;-1.66;67.04
71082;SHT31;58740;50.672;18.690;2023-02-28T04:03:46;-1.66;66.99
71082;SHT31;58740;50.672;18.690;2023-02-28T04:06:15;-1.64;67.15
71082;SHT31;58740;50.672;18.690;2023-02-28T04:08:47;-1.63;67.31
71082;SHT31;58740;50.672;18.690;2023-02-28T04:11:20;-1.63;67.22
71082;SHT31;58740;50.672;18.690;2023-02-28T04:13:59;-1.66;67.16
71082;SHT31;58740;50.672;18.690;2023-02-28T04:16:27;-1.68;67.22
71082;SHT31;58740;50.672;18.690;2023-02-28T04:19:02;-1.70;67.46
71082;SHT31;58740;50.672;18.690;2023-02-28T04:24:03;-1.76;67.62
71082;SHT31;58740;50.672;18.690;2023-02-28T04:26:36;-1.79;67.68
71082;SHT31;58740;50.672;18.690;2023-02-28T04:29:05;-1.82;67.65
71082;SHT31;58740;50.672;18.690;2023-02-28T04:31:34;-1.85;67.62
71082;SHT31;58740;50.672;18.690;2023-02-28T04:34:02;-1.89;67.63
71082;SHT31;58740;50.672;18.690;2023-02-28T04:36:30;-1.95;67.74
71082;SHT31;58740;50.672;18.690;2023-02-28T04:38:58;-1.99;67.92
71082;SHT31;58740;50.672;18.690;2023-02-28T04:41:26;-2.02;67.78
71082;SHT31;58740;50.672;18.690;2023-02-28T04:43:58;-2.04;68.07
71082;SHT31;58740;50.672;18.690;2023-02-28T04:46:26;-2.05;67.97
71082;SHT31;58740;50.672;18.690;2023-02-28T04:48:53;-2.08;68.06
71082;SHT31;58740;50.672;18.690;2023-02-28T04:51:22;-2.10;68.24
71082;SHT31;58740;50.672;18.690;2023-02-28T04:53:50;-2.09;68.17
71082;SHT31;58740;50.672;18.690;2023-02-28T04:56:18;-2.11;68.29
71082;SHT31;58740;50.672;18.690;2023-02-28T04:58:46;-2.06;68.49
71082;SHT31;58740;50.672;18.690;2023-02-28T05:03:59;-2.03;68.05
71082;SHT31;58740;50.672;18.690;2023-02-28T05:06:29;-2.04;68.09
71082;SHT31;58740;50.672;18.690;2023-02-28T05:09:00;-2.04;68.07
71082;SHT31;58740;50.672;18.690;2023-02-28T05:11:29;-2.03;68.21
71082;SHT31;58740;50.672;18.690;2023-02-28T05:14:08;-2.07;68.24
71082;SHT31;58740;50.672;18.690;2023-02-28T05:16:39;-2.10;68.41
71082;SHT31;58740;50.672;18.690;2023-02-28T05:19:08;-2.10;68.32
71082;SHT31;58740;50.672;18.690;2023-02-28T05:21:37;-2.13;68.40
71082;SHT31;58740;50.672;18.690;2023-02-28T05:24:10;-2.16;68.56
71082;SHT31;58740;50.672;18.690;2023-02-28T05:26:40;-2.18;68.68
71082;SHT31;58740;50.672;18.690;2023-02-28T05:29:10;-2.23;68.79
71082;SHT31;58740;50.672;18.690;2023-02-28T05:31:38;-2.27;69.05
71082;SHT31;58740;50.672;18.690;2023-02-28T05:34:06;-2.32;69.20
71082;SHT31;58740;50.672;18.690;2023-02-28T05:36:34;-2.37;69.46
71082;SHT31;58740;50.672;18.690;2023-02-28T05:39:07;-2.42;69.58
71082;SHT31;58740;50.672;18.690;2023-02-28T05:41:42;-2.43;69.75
71082;SHT31;58740;50.672;18.690;2023-02-28T05:44:11;-2.42;69.80
71082;SHT31;58740;50.672;18.690;2023-02-28T05:46:39;-2.40;69.77
71082;SHT31;58740;50.672;18.690;2023-02-28T05:49:07;-2.38;69.68
71082;SHT31;58740;50.672;18.690;2023-02-28T05:51:35;-2.34;69.77
71082;SHT31;58740;50.672;18.690;2023-02-28T05:54:07;-2.29;69.84
71082;SHT31;58740;50.672;18.690;2023-02-28T05:56:35;-2.24;69.90
71082;SHT31;58740;50.672;18.690;2023-02-28T05:59:05;-2.19;69.92
71082;SHT31;58740;50.672;18.690;2023-02-28T06:01:38;-2.15;69.86
71082;SHT31;58740;50.672;18.690;2023-02-28T06:04:18;-2.09;69.67
71082;SHT31;58740;50.672;18.690;2023-02-28T06:06:58;-2.03;69.85
71082;SHT31;58740;50.672;18.690;2023-02-28T06:09:26;-2.00;69.85
71082;SHT31;58740;50.672;18.690;2023-02-28T06:11:54;-1.94;69.61
71082;SHT31;58740;50.672;18.690;2023-02-28T06:14:24;-1.89;69.58
71082;SHT31;58740;50.672;18.690;2023-02-28T06:16:53;-1.85;69.54
71082;SHT31;58740;50.672;18.690;2023-02-28T06:19:20;-1.81;69.53
71082;SHT31;58740;50.672;18.690;2023-02-28T06:21:50;-1.76;69.01
71082;SHT31;58740;50.672;18.690;2023-02-28T06:24:20;-1.68;68.55
71082;SHT31;58740;50.672;18.690;2023-02-28T06:26:51;-1.64;68.10
71082;SHT31;58740;50.672;18.690;2023-02-28T06:29:18;-1.60;68.38
71082;SHT31;58740;50.672;18.690;2023-02-28T06:31:46;-1.56;68.81
71082;SHT31;58740;50.672;18.690;2023-02-28T06:34:15;-1.53;69.01
71082;SHT31;58740;50.672;18.690;2023-02-28T06:36:43;-1.48;68.96
71082;SHT31;58740;50.672;18.690;2023-02-28T06:39:11;-1.40;69.10
71082;SHT31;58740;50.672;18.690;2023-02-28T06:41:39;-1.28;68.63
71082;SHT31;58740;50.672;18.690;2023-02-28T06:44:22;-1.18;68.18
71082;SHT31;58740;50.672;18.690;2023-02-28T06:46:50;-1.06;68.03
71082;SHT31;58740;50.672;18.690;2023-02-28T06:49:18;-0.96;67.28
71082;SHT31;58740;50.672;18.690;2023-02-28T06:51:46;-0.85;67.18
71082;SHT31;58740;50.672;18.690;2023-02-28T06:54:14;-0.77;66.54
71082;SHT31;58740;50.672;18.690;2023-02-28T06:56:41;-0.70;66.41
71082;SHT31;58740;50.672;18.690;2023-02-28T06:59:09;-0.64;66.00
71082;SHT31;58740;50.672;18.690;2023-02-28T07:01:37;-0.61;65.40
71082;SHT31;58740;50.672;18.690;2023-02-28T07:04:06;-0.59;65.35
71082;SHT31;58740;50.672;18.690;2023-02-28T07:06:34;-0.50;65.04
71082;SHT31;58740;50.672;18.690;2023-02-28T07:09:02;-0.38;65.11
71082;SHT31;58740;50.672;18.690;2023-02-28T07:11:31;-0.32;65.08
71082;SHT31;58740;50.672;18.690;2023-02-28T07:13:59;-0.28;65.06
71082;SHT31;58740;50.672;18.690;2023-02-28T07:16:27;-0.27;64.27
71082;SHT31;58740;50.672;18.690;2023-02-28T07:18:55;-0.30;63.91
71082;SHT31;58740;50.672;18.690;2023-02-28T07:21:23;-0.27;64.25
71082;SHT31;58740;50.672;18.690;2023-02-28T07:23:51;-0.23;64.54
71082;SHT31;58740;50.672;18.690;2023-02-28T07:26:19;-0.19;64.36
71082;SHT31;58740;50.672;18.690;2023-02-28T07:28:48;-0.14;63.98
71082;SHT31;58740;50.672;18.690;2023-02-28T07:31:17;-0.09;63.94
71082;SHT31;58740;50.672;18.690;2023-02-28T07:33:46;-0.04;63.38
71082;SHT31;58740;50.672;18.690;2023-02-28T07:36:15;0.02;63.04
71082;SHT31;58740;50.672;18.690;2023-02-28T07:38:46;0.07;62.60
71082;SHT31;58740;50.672;18.690;2023-02-28T07:41:18;0.13;62.31
71082;SHT31;58740;50.672;18.690;2023-02-28T07:43:48;0.20;61.84
71082;SHT31;58740;50.672;18.690;2023-02-28T07:46:16;0.26;61.87
71082;SHT31;58740;50.672;18.690;2023-02-28T07:48:45;0.33;61.83
71082;SHT31;58740;50.672;18.690;2023-02-28T07:51:13;0.37;61.00
71082;SHT31;58740;50.672;18.690;2023-02-28T07:53:41;0.42;61.15
71082;SHT31;58740;50.672;18.690;2023-02-28T07:56:09;0.48;61.10
71082;SHT31;58740;50.672;18.690;2023-02-28T07:58:38;0.55;61.11
71082;SHT31;58740;50.672;18.690;2023-02-28T08:01:07;0.60;59.85
71082;SHT31;58740;50.672;18.690;2023-02-28T08:03:37;0.63;60.16
71082;SHT31;58740;50.672;18.690;2023-02-28T08:06:06;0.67;59.67
71082;SHT31;58740;50.672;18.690;2023-02-28T08:08:44;0.68;59.65
71082;SHT31;58740;50.672;18.690;2023-02-28T08:11:11;0.71;59.03
71082;SHT31;58740;50.672;18.690;2023-02-28T08:13:40;0.75;59.21
71082;SHT31;58740;50.672;18.690;2023-02-28T08:16:10;0.76;58.47
71082;SHT31;58740;50.672;18.690;2023-02-28T08:18:50;0.80;58.82
71082;SHT31;58740;50.672;18.690;2023-02-28T08:21:19;0.86;59.02
71082;SHT31;58740;50.672;18.690;2023-02-28T08:23:49;0.90;58.53
71082;SHT31;58740;50.672;18.690;2023-02-28T08:26:19;0.94;58.02
71082;SHT31;58740;50.672;18.690;2023-02-28T08:28:48;0.98;57.99
71082;SHT31;58740;50.672;18.690;2023-02-28T08:31:16;1.03;58.19
71082;SHT31;58740;50.672;18.690;2023-02-28T08:33:45;1.10;57.96
71082;SHT31;58740;50.672;18.690;2023-02-28T08:36:16;1.12;56.46
71082;SHT31;58740;50.672;18.690;2023-02-28T08:38:44;1.11;55.78
71082;SHT31;58740;50.672;18.690;2023-02-28T08:41:13;1.12;55.83
71082;SHT31;58740;50.672;18.690;2023-02-28T08:43:40;1.14;56.22
71082;SHT31;58740;50.672;18.690;2023-02-28T08:46:11;1.18;56.63
71082;SHT31;58740;50.672;18.690;2023-02-28T08:48:41;1.19;56.15
71082;SHT31;58740;50.672;18.690;2023-02-28T08:51:15;1.21;56.64
71082;SHT31;58740;50.672;18.690;2023-02-28T08:53:49;1.26;56.87
71082;SHT31;58740;50.672;18.690;2023-02-28T08:56:17;1.28;56.19
71082;SHT31;58740;50.672;18.690;2023-02-28T08:58:46;1.29;55.96
71082;SHT31;58740;50.672;18.690;2023-02-28T09:01:17;1.32;56.78
71082;SHT31;58740;50.672;18.690;2023-02-28T09:03:50;1.37;56.61
71082;SHT31;58740;50.672;18.690;2023-02-28T09:06:19;1.39;55.86
71082;SHT31;58740;50.672;18.690;2023-02-28T09:08:49;1.40;55.47
71082;SHT31;58740;50.672;18.690;2023-02-28T09:11:18;1.41;55.42
71082;SHT31;58740;50.672;18.690;2023-02-28T09:13:47;1.42;55.08
71082;SHT31;58740;50.672;18.690;2023-02-28T09:16:15;1.45;54.83
71082;SHT31;58740;50.672;18.690;2023-02-28T09:18:45;1.44;54.69
71082;SHT31;58740;50.672;18.690;2023-02-28T09:21:14;1.44;55.08
71082;SHT31;58740;50.672;18.690;2023-02-28T09:23:46;1.46;55.36
71082;SHT31;58740;50.672;18.690;2023-02-28T09:26:24;1.51;55.57
71082;SHT31;58740;50.672;18.690;2023-02-28T09:29:09;1.55;54.88
71082;SHT31;58740;50.672;18.690;2023-02-28T09:31:38;1.57;54.89
71082;SHT31;58740;50.672;18.690;2023-02-28T09:34:06;1.58;54.19
71082;SHT31;58740;50.672;18.690;2023-02-28T09:36:34;1.60;54.00
71082;SHT31;58740;50.672;18.690;2023-02-28T09:39:12;1.58;53.89
71082;SHT31;58740;50.672;18.690;2023-02-28T09:41:44;1.55;53.72
71082;SHT31;58740;50.672;18.690;2023-02-28T09:44:37;1.55;53.04
71082;SHT31;58740;50.672;18.690;2023-02-28T09:47:31;1.53;52.28
71082;SHT31;58740;50.672;18.690;2023-02-28T09:50:11;1.50;52.68
71082;SHT31;58740;50.672;18.690;2023-02-28T09:52:57;1.48;52.82
71082;SHT31;58740;50.672;18.690;2023-02-28T09:58:32;1.52;53.04
71082;SHT31;58740;50.672;18.690;2023-02-28T10:04:42;1.55;52.96
71082;SHT31;58740;50.672;18.690;2023-02-28T10:10:53;1.58;53.36
71082;SHT31;58740;50.672;18.690;2023-02-28T10:13:34;1.62;53.73
71082;SHT31;58740;50.672;18.690;2023-02-28T10:16:10;1.64;53.77
71082;SHT31;58740;50.672;18.690;2023-02-28T10:18:49;1.64;53.53
71082;SHT31;58740;50.672;18.690;2023-02-28T10:21:37;1.65;53.53
71082;SHT31;58740;50.672;18.690;2023-02-28T10:24:16;1.68;53.31
71082;SHT31;58740;50.672;18.690;2023-02-28T10:26:56;1.69;53.46
71082;SHT31;58740;50.672;18.690;2023-02-28T10:29:36;1.69;52.90
71082;SHT31;58740;50.672;18.690;2023-02-28T10:32:11;1.70;53.71
71082;SHT31;58740;50.672;18.690;2023-02-28T10:34:45;1.72;53.87
71082;SHT31;58740;50.672;18.690;2023-02-28T10:37:23;1.76;54.71
71082;SHT31;58740;50.672;18.690;2023-02-28T10:39:50;1.83;54.94
71082;SHT31;58740;50.672;18.690;2023-02-28T10:42:23;1.88;53.65
71082;SHT31;58740;50.672;18.690;2023-02-28T10:45:07;1.89;53.78
71082;SHT31;58740;50.672;18.690;2023-02-28T10:47:54;1.91;53.06
71082;SHT31;58740;50.672;18.690;2023-02-28T11:01:41;2.00;53.99
71082;SHT31;58740;50.672;18.690;2023-02-28T11:07:00;1.99;52.88
71082;SHT31;58740;50.672;18.690;2023-02-28T11:09:32;1.97;53.04
71082;SHT31;58740;50.672;18.690;2023-02-28T11:12:07;1.95;53.34
71082;SHT31;58740;50.672;18.690;2023-02-28T11:14:50;1.97;53.27
71082;SHT31;58740;50.672;18.690;2023-02-28T11:17:24;1.98;52.80
71082;SHT31;58740;50.672;18.690;2023-02-28T11:19:57;1.98;54.46
71082;SHT31;58740;50.672;18.690;2023-02-28T11:22:31;1.97;54.69
71082;SHT31;58740;50.672;18.690;2023-02-28T11:25:07;1.92;54.61
71082;SHT31;58740;50.672;18.690;2023-02-28T11:27:54;1.89;55.52
71082;SHT31;58740;50.672;18.690;2023-02-28T11:30:38;1.88;55.51
71082;SHT31;58740;50.672;18.690;2023-02-28T11:33:23;1.87;55.65
71082;SHT31;58740;50.672;18.690;2023-02-28T11:36:23;1.85;55.58
71082;SHT31;58740;50.672;18.690;2023-02-28T11:39:07;1.85;55.61
71082;SHT31;58740;50.672;18.690;2023-02-28T11:42:04;1.84;55.60
71082;SHT31;58740;50.672;18.690;2023-02-28T11:50:20;1.79;55.85
71082;SHT31;58740;50.672;18.690;2023-02-28T12:05:40;1.78;56.21
71082;SHT31;58740;50.672;18.690;2023-02-28T12:08:39;1.78;55.77
71082;SHT31;58740;50.672;18.690;2023-02-28T12:14:25;1.76;55.29
71082;SHT31;58740;50.672;18.690;2023-02-28T12:20:34;1.77;55.58
71082;SHT31;58740;50.672;18.690;2023-02-28T12:26:50;1.79;55.70
71082;SHT31;58740;50.672;18.690;2023-02-28T12:34:57;1.92;55.95
71082;SHT31;58740;50.672;18.690;2023-02-28T12:37:36;1.96;56.20
71082;SHT31;58740;50.672;18.690;2023-02-28T12:40:12;2.03;55.87
71082;SHT31;58740;50.672;18.690;2023-02-28T12:42:50;2.10;55.31
71082;SHT31;58740;50.672;18.690;2023-02-28T12:45:56;2.15;54.95
71082;SHT31;58740;50.672;18.690;2023-02-28T12:48:37;2.20;54.79
71082;SHT31;58740;50.672;18.690;2023-02-28T12:51:15;2.24;54.56
71082;SHT31;58740;50.672;18.690;2023-02-28T12:53:57;2.28;55.10
71082;SHT31;58740;50.672;18.690;2023-02-28T12:56:48;2.32;54.60
71082;SHT31;58740;50.672;18.690;2023-02-28T12:59:48;2.36;54.99
71082;SHT31;58740;50.672;18.690;2023-02-28T13:06:24;2.43;54.86
71082;SHT31;58740;50.672;18.690;2023-02-28T13:11:39;2.49;54.70
71082;SHT31;58740;50.672;18.690;2023-02-28T13:22:36;2.55;54.48
71082;SHT31;58740;50.672;18.690;2023-02-28T13:27:51;2.57;54.76
71082;SHT31;58740;50.672;18.690;2023-02-28T13:38:45;2.49;54.49
71082;SHT31;58740;50.672;18.690;2023-02-28T13:57:33;2.49;55.09
71082;SHT31;58740;50.672;18.690;2023-02-28T14:06:33;2.47;55.71
71082;SHT31;58740;50.672;18.690;2023-02-28T14:15:48;2.47;55.53
71082;SHT31;58740;50.672;18.690;2023-02-28T14:20:57;2.48;55.09
71082;SHT31;58740;50.672;18.690;2023-02-28T14:26:47;2.48;55.22
71082;SHT31;58740;50.672;18.690;2023-02-28T14:36:20;2.48;55.30
71082;SHT31;58740;50.672;18.690;2023-02-28T14:38:56;2.48;55.35
71082;SHT31;58740;50.672;18.690;2023-02-28T14:41:36;2.48;55.41
71082;SHT31;58740;50.672;18.690;2023-02-28T14:44:21;2.48;55.15
71082;SHT31;58740;50.672;18.690;2023-02-28T14:46:52;2.47;55.21
71082;SHT31;58740;50.672;18.690;2023-02-28T14:49:28;2.47;55.29
71082;SHT31;58740;50.672;18.690;2023-02-28T14:54:59;2.48;55.81
71082;SHT31;58740;50.672;18.690;2023-02-28T14:57:33;2.49;55.81
71082;SHT31;58740;50.672;18.690;2023-02-28T15:02:57;2.51;55.97
71082;SHT31;58740;50.672;18.690;2023-02-28T15:05:34;2.51;56.16
71082;SHT31;58740;50.672;18.690;2023-02-28T15:10:49;2.52;56.33
71082;SHT31;58740;50.672;18.690;2023-02-28T15:13:23;2.49;56.20
71082;SHT31;58740;50.672;18.690;2023-02-28T15:16:00;2.49;56.06
71082;SHT31;58740;50.672;18.690;2023-02-28T15:21:19;2.48;55.91
71082;SHT31;58740;50.672;18.690;2023-02-28T15:24:04;2.49;55.89
71082;SHT31;58740;50.672;18.690;2023-02-28T15:26:41;2.48;55.99
71082;SHT31;58740;50.672;18.690;2023-02-28T15:29:24;2.48;56.10
71082;SHT31;58740;50.672;18.690;2023-02-28T15:34:37;2.47;56.30
71082;SHT31;58740;50.672;18.690;2023-02-28T15:39:58;2.46;56.08
71082;SHT31;58740;50.672;18.690;2023-02-28T15:42:39;2.45;56.31
71082;SHT31;58740;50.672;18.690;2023-02-28T15:45:26;2.44;56.70
71082;SHT31;58740;50.672;18.690;2023-02-28T15:47:59;2.44;56.16
71082;SHT31;58740;50.672;18.690;2023-02-28T15:50:40;2.42;56.16
71082;SHT31;58740;50.672;18.690;2023-02-28T15:53:13;2.40;56.23
71082;SHT31;58740;50.672;18.690;2023-02-28T15:55:51;2.39;56.50
71082;SHT31;58740;50.672;18.690;2023-02-28T15:58:25;2.37;56.23
71082;SHT31;58740;50.672;18.690;2023-02-28T16:01:01;2.33;56.20
71082;SHT31;58740;50.672;18.690;2023-02-28T16:03:45;2.31;56.59
71082;SHT31;58740;50.672;18.690;2023-02-28T16:09:00;2.24;56.73
71082;SHT31;58740;50.672;18.690;2023-02-28T16:11:30;2.21;56.86
71082;SHT31;58740;50.672;18.690;2023-02-28T16:14:02;2.19;56.98
71082;SHT31;58740;50.672;18.690;2023-02-28T16:16:30;2.16;57.38
71082;SHT31;58740;50.672;18.690;2023-02-28T16:19:00;2.13;57.24
71082;SHT31;58740;50.672;18.690;2023-02-28T16:21:28;2.10;57.57
71082;SHT31;58740;50.672;18.690;2023-02-28T16:23:56;2.07;57.85
71082;SHT31;58740;50.672;18.690;2023-02-28T16:26:24;2.04;57.88
71082;SHT31;58740;50.672;18.690;2023-02-28T16:28:54;2.01;58.25
71082;SHT31;58740;50.672;18.690;2023-02-28T16:31:22;1.97;58.55
71082;SHT31;58740;50.672;18.690;2023-02-28T16:33:50;1.94;58.54
71082;SHT31;58740;50.672;18.690;2023-02-28T16:36:19;1.91;58.63
71082;SHT31;58740;50.672;18.690;2023-02-28T16:38:53;1.86;58.99
71082;SHT31;58740;50.672;18.690;2023-02-28T16:41:23;1.84;58.72
71082;SHT31;58740;50.672;18.690;2023-02-28T16:43:55;1.78;58.73
71082;SHT31;58740;50.672;18.690;2023-02-28T16:46:28;1.75;59.12
71082;SHT31;58740;50.672;18.690;2023-02-28T16:49:01;1.70;59.49
71082;SHT31;58740;50.672;18.690;2023-02-28T16:51:29;1.67;59.69
71082;SHT31;58740;50.672;18.690;2023-02-28T16:54:01;1.61;59.90
71082;SHT31;58740;50.672;18.690;2023-02-28T16:56:29;1.55;60.09
71082;SHT31;58740;50.672;18.690;2023-02-28T16:58:59;1.48;60.19
71082;SHT31;58740;50.672;18.690;2023-02-28T17:01:29;1.42;60.37
71082;SHT31;58740;50.672;18.690;2023-02-28T17:03:58;1.38;60.54
71082;SHT31;58740;50.672;18.690;2023-02-28T17:06:27;1.34;60.94
71082;SHT31;58740;50.672;18.690;2023-02-28T17:08:57;1.29;61.20
71082;SHT31;58740;50.672;18.690;2023-02-28T17:11:26;1.22;61.26
71082;SHT31;58740;50.672;18.690;2023-02-28T17:13:55;1.17;61.46
71082;SHT31;58740;50.672;18.690;2023-02-28T17:16:28;1.10;61.65
71082;SHT31;58740;50.672;18.690;2023-02-28T17:19:00;1.03;61.89
71082;SHT31;58740;50.672;18.690;2023-02-28T17:21:33;0.98;62.13
71082;SHT31;58740;50.672;18.690;2023-02-28T17:24:01;0.92;62.31
71082;SHT31;58740;50.672;18.690;2023-02-28T17:26:30;0.88;62.57
71082;SHT31;58740;50.672;18.690;2023-02-28T17:28:59;0.83;62.67
71082;SHT31;58740;50.672;18.690;2023-02-28T17:31:27;0.82;62.79
71082;SHT31;58740;50.672;18.690;2023-02-28T17:33:55;0.82;63.10
71082;SHT31;58740;50.672;18.690;2023-02-28T17:36:24;0.78;63.35
71082;SHT31;58740;50.672;18.690;2023-02-28T17:38:55;0.74;63.55
71082;SHT31;58740;50.672;18.690;2023-02-28T17:41:23;0.69;63.50
71082;SHT31;58740;50.672;18.690;2023-02-28T17:43:52;0.65;63.73
71082;SHT31;58740;50.672;18.690;2023-02-28T17:46:21;0.61;64.11
71082;SHT31;58740;50.672;18.690;2023-02-28T17:48:52;0.63;64.02
71082;SHT31;58740;50.672;18.690;2023-02-28T17:51:22;0.65;63.90
71082;SHT31;58740;50.672;18.690;2023-02-28T17:53:51;0.70;63.79
71082;SHT31;58740;50.672;18.690;2023-02-28T17:56:21;0.73;63.75
71082;SHT31;58740;50.672;18.690;2023-02-28T17:58:52;0.75;63.70
71082;SHT31;58740;50.672;18.690;2023-02-28T18:01:23;0.78;63.69
71082;SHT31;58740;50.672;18.690;2023-02-28T18:03:53;0.82;63.76
71082;SHT31;58740;50.672;18.690;2023-02-28T18:06:23;0.84;63.92
71082;SHT31;58740;50.672;18.690;2023-02-28T18:08:56;0.83;64.03
71082;SHT31;58740;50.672;18.690;2023-02-28T18:11:24;0.80;64.49
71082;SHT31;58740;50.672;18.690;2023-02-28T18:13:54;0.77;64.56
71082;SHT31;58740;50.672;18.690;2023-02-28T18:16:23;0.72;64.59
71082;SHT31;58740;50.672;18.690;2023-02-28T18:18:51;0.69;64.83
71082;SHT31;58740;50.672;18.690;2023-02-28T18:21:19;0.65;64.76
71082;SHT31;58740;50.672;18.690;2023-02-28T18:23:47;0.62;64.77
71082;SHT31;58740;50.672;18.690;2023-02-28T18:26:17;0.58;65.00
71082;SHT31;58740;50.672;18.690;2023-02-28T18:28:47;0.54;64.96
71082;SHT31;58740;50.672;18.690;2023-02-28T18:31:16;0.52;65.13
71082;SHT31;58740;50.672;18.690;2023-02-28T18:33:47;0.48;65.22
71082;SHT31;58740;50.672;18.690;2023-02-28T18:36:18;0.43;65.37
71082;SHT31;58740;50.672;18.690;2023-02-28T18:38:48;0.40;65.64
71082;SHT31;58740;50.672;18.690;2023-02-28T18:41:18;0.38;65.58
71082;SHT31;58740;50.672;18.690;2023-02-28T18:43:48;0.36;65.53
71082;SHT31;58740;50.672;18.690;2023-02-28T18:46:20;0.36;65.58
71082;SHT31;58740;50.672;18.690;2023-02-28T18:48:48;0.36;65.59
71082;SHT31;58740;50.672;18.690;2023-02-28T18:51:17;0.37;65.59
71082;SHT31;58740;50.672;18.690;2023-02-28T18:53:49;0.36;65.60
71082;SHT31;58740;50.672;18.690;2023-02-28T18:56:18;0.35;65.56
71082;SHT31;58740;50.672;18.690;2023-02-28T18:58:50;0.34;65.60
71082;SHT31;58740;50.672;18.690;2023-02-28T19:01:20;0.35;65.51
71082;SHT31;58740;50.672;18.690;2023-02-28T19:03:58;0.36;65.45
71082;SHT31;58740;50.672;18.690;2023-02-28T19:06:28;0.41;65.43
71082;SHT31;58740;50.672;18.690;2023-02-28T19:08:59;0.44;65.41
71082;SHT31;58740;50.672;18.690;2023-02-28T19:11:28;0.47;65.52